sensor_id;sensor_type;location;lat;lon;timestamp;P1;durP1;ratioP1;P2;durP2;ratioP2
23506;SDS011;11930;53.076;18.250;2023-05-07T00:00:03;12.50;;;7.23;;
23506;SDS011;11930;53.076;18.250;2023-05-07T00:02:53;12.07;;;7.70;;
23506;SDS011;11930;53.076;18.250;2023-05-07T00:05:19;16.03;;;7.97;;
23506;SDS011;11930;53.076;18.250;2023-05-07T00:07:46;15.43;;;8.07;;
23506;SDS011;11930;53.076;18.250;2023-05-07T00:10:12;16.27;;;7.80;;
23506;SDS011;11930;53.076;18.250;2023-05-07T00:12:38;15.17;;;8.23;;
23506;SDS011;11930;53.076;18.250;2023-05-07T00:15:06;18.33;;;8.23;;
23506;SDS011;11930;53.076;18.250;2023-05-07T00:17:32;12.00;;;7.20;;
23506;SDS011;11930;53.076;18.250;2023-05-07T00:19:58;13.77;;;7.83;;
23506;SDS011;11930;53.076;18.250;2023-05-07T00:22:25;17.37;;;8.47;;
23506;SDS011;11930;53.076;18.250;2023-05-07T00:24:51;18.00;;;7.93;;
23506;SDS011;11930;53.076;18.250;2023-05-07T00:27:17;13.20;;;7.40;;
23506;SDS011;11930;53.076;18.250;2023-05-07T00:29:43;11.53;;;7.17;;
23506;SDS011;11930;53.076;18.250;2023-05-07T00:32:08;11.40;;;7.10;;
23506;SDS011;11930;53.076;18.250;2023-05-07T00:34:35;10.17;;;6.60;;
23506;SDS011;11930;53.076;18.250;2023-05-07T00:37:01;11.17;;;6.43;;
23506;SDS011;11930;53.076;18.250;2023-05-07T00:39:27;11.57;;;6.73;;
23506;SDS011;11930;53.076;18.250;2023-05-07T00:41:53;9.83;;;6.53;;
23506;SDS011;11930;53.076;18.250;2023-05-07T00:44:19;10.70;;;6.83;;
23506;SDS011;11930;53.076;18.250;2023-05-07T00:46:45;9.23;;;5.90;;
23506;SDS011;11930;53.076;18.250;2023-05-07T00:49:14;11.20;;;6.57;;
23506;SDS011;11930;53.076;18.250;2023-05-07T00:51:40;8.53;;;5.73;;
23506;SDS011;11930;53.076;18.250;2023-05-07T00:54:06;12.77;;;7.27;;
23506;SDS011;11930;53.076;18.250;2023-05-07T00:56:33;10.90;;;6.57;;
23506;SDS011;11930;53.076;18.250;2023-05-07T00:59:01;9.33;;;5.90;;
23506;SDS011;11930;53.076;18.250;2023-05-07T01:01:27;10.83;;;6.20;;
23506;SDS011;11930;53.076;18.250;2023-05-07T01:03:54;11.87;;;6.83;;
23506;SDS011;11930;53.076;18.250;2023-05-07T01:06:20;11.67;;;6.70;;
23506;SDS011;11930;53.076;18.250;2023-05-07T01:08:48;11.10;;;7.00;;
23506;SDS011;11930;53.076;18.250;2023-05-07T01:11:15;11.13;;;7.17;;
23506;SDS011;11930;53.076;18.250;2023-05-07T01:13:42;12.77;;;7.53;;
23506;SDS011;11930;53.076;18.250;2023-05-07T01:16:08;10.37;;;6.70;;
23506;SDS011;11930;53.076;18.250;2023-05-07T01:18:35;10.97;;;6.80;;
23506;SDS011;11930;53.076;18.250;2023-05-07T01:21:01;11.70;;;7.10;;
23506;SDS011;11930;53.076;18.250;2023-05-07T01:23:30;11.40;;;6.87;;
23506;SDS011;11930;53.076;18.250;2023-05-07T01:25:56;11.60;;;7.03;;
23506;SDS011;11930;53.076;18.250;2023-05-07T01:28:25;12.03;;;7.10;;
23506;SDS011;11930;53.076;18.250;2023-05-07T01:30:56;11.87;;;6.60;;
23506;SDS011;11930;53.076;18.250;2023-05-07T01:33:27;9.77;;;5.57;;
23506;SDS011;11930;53.076;18.250;2023-05-07T01:35:57;10.63;;;6.70;;
23506;SDS011;11930;53.076;18.250;2023-05-07T01:38:26;11.70;;;7.03;;
23506;SDS011;11930;53.076;18.250;2023-05-07T01:40:53;11.13;;;6.33;;
23506;SDS011;11930;53.076;18.250;2023-05-07T01:43:20;13.17;;;7.67;;
23506;SDS011;11930;53.076;18.250;2023-05-07T01:45:47;13.83;;;7.43;;
23506;SDS011;11930;53.076;18.250;2023-05-07T01:48:14;11.20;;;7.17;;
23506;SDS011;11930;53.076;18.250;2023-05-07T01:50:44;13.73;;;7.40;;
23506;SDS011;11930;53.076;18.250;2023-05-07T01:53:10;12.20;;;7.17;;
23506;SDS011;11930;53.076;18.250;2023-05-07T01:55:36;12.53;;;6.80;;
23506;SDS011;11930;53.076;18.250;2023-05-07T01:58:03;10.87;;;6.67;;
23506;SDS011;11930;53.076;18.250;2023-05-07T02:00:30;11.60;;;6.83;;
23506;SDS011;11930;53.076;18.250;2023-05-07T02:02:57;13.63;;;7.93;;
23506;SDS011;11930;53.076;18.250;2023-05-07T02:05:32;14.30;;;6.97;;
23506;SDS011;11930;53.076;18.250;2023-05-07T02:08:04;12.13;;;6.73;;
23506;SDS011;11930;53.076;18.250;2023-05-07T02:10:30;13.23;;;7.00;;
23506;SDS011;11930;53.076;18.250;2023-05-07T02:12:56;11.63;;;7.10;;
23506;SDS011;11930;53.076;18.250;2023-05-07T02:15:22;11.53;;;7.17;;
23506;SDS011;11930;53.076;18.250;2023-05-07T02:17:58;16.43;;;8.77;;
23506;SDS011;11930;53.076;18.250;2023-05-07T02:20:37;17.23;;;8.33;;
23506;SDS011;11930;53.076;18.250;2023-05-07T02:23:03;22.40;;;8.50;;
23506;SDS011;11930;53.076;18.250;2023-05-07T02:25:29;18.70;;;8.87;;
23506;SDS011;11930;53.076;18.250;2023-05-07T02:27:55;19.33;;;8.97;;
23506;SDS011;11930;53.076;18.250;2023-05-07T02:30:29;16.83;;;8.37;;
23506;SDS011;11930;53.076;18.250;2023-05-07T02:32:57;18.90;;;9.47;;
23506;SDS011;11930;53.076;18.250;2023-05-07T02:35:24;21.17;;;8.60;;
23506;SDS011;11930;53.076;18.250;2023-05-07T02:37:51;19.27;;;9.67;;
23506;SDS011;11930;53.076;18.250;2023-05-07T02:40:17;17.03;;;8.77;;
23506;SDS011;11930;53.076;18.250;2023-05-07T02:42:43;18.70;;;8.77;;
23506;SDS011;11930;53.076;18.250;2023-05-07T02:45:09;20.33;;;9.50;;
23506;SDS011;11930;53.076;18.250;2023-05-07T02:47:36;17.43;;;8.67;;
23506;SDS011;11930;53.076;18.250;2023-05-07T02:50:03;17.17;;;8.87;;
23506;SDS011;11930;53.076;18.250;2023-05-07T02:52:29;17.23;;;8.67;;
23506;SDS011;11930;53.076;18.250;2023-05-07T02:54:55;17.93;;;9.33;;
23506;SDS011;11930;53.076;18.250;2023-05-07T02:57:21;15.00;;;8.47;;
23506;SDS011;11930;53.076;18.250;2023-05-07T02:59:47;19.20;;;10.10;;
23506;SDS011;11930;53.076;18.250;2023-05-07T03:02:14;20.30;;;9.67;;
23506;SDS011;11930;53.076;18.250;2023-05-07T03:04:40;18.33;;;10.07;;
23506;SDS011;11930;53.076;18.250;2023-05-07T03:07:07;19.30;;;10.50;;
23506;SDS011;11930;53.076;18.250;2023-05-07T03:09:33;17.57;;;9.70;;
23506;SDS011;11930;53.076;18.250;2023-05-07T03:11:59;22.97;;;10.77;;
23506;SDS011;11930;53.076;18.250;2023-05-07T03:14:25;18.60;;;9.93;;
23506;SDS011;11930;53.076;18.250;2023-05-07T03:16:51;19.27;;;10.23;;
23506;SDS011;11930;53.076;18.250;2023-05-07T03:19:17;22.97;;;11.53;;
23506;SDS011;11930;53.076;18.250;2023-05-07T03:21:43;23.40;;;11.97;;
23506;SDS011;11930;53.076;18.250;2023-05-07T03:24:09;19.03;;;10.70;;
23506;SDS011;11930;53.076;18.250;2023-05-07T03:26:35;23.23;;;11.93;;
23506;SDS011;11930;53.076;18.250;2023-05-07T03:29:01;24.00;;;12.93;;
23506;SDS011;11930;53.076;18.250;2023-05-07T03:31:28;22.47;;;12.37;;
23506;SDS011;11930;53.076;18.250;2023-05-07T03:33:55;24.03;;;13.00;;
23506;SDS011;11930;53.076;18.250;2023-05-07T03:36:23;22.07;;;12.80;;
23506;SDS011;11930;53.076;18.250;2023-05-07T03:38:49;21.63;;;11.53;;
23506;SDS011;11930;53.076;18.250;2023-05-07T03:41:19;22.27;;;12.80;;
23506;SDS011;11930;53.076;18.250;2023-05-07T03:43:46;27.83;;;14.17;;
23506;SDS011;11930;53.076;18.250;2023-05-07T03:46:12;22.20;;;12.73;;
23506;SDS011;11930;53.076;18.250;2023-05-07T03:48:38;25.40;;;13.63;;
23506;SDS011;11930;53.076;18.250;2023-05-07T03:51:06;23.07;;;12.97;;
23506;SDS011;11930;53.076;18.250;2023-05-07T03:53:32;25.27;;;13.43;;
23506;SDS011;11930;53.076;18.250;2023-05-07T03:55:59;23.63;;;12.30;;
23506;SDS011;11930;53.076;18.250;2023-05-07T03:58:26;22.13;;;11.97;;
23506;SDS011;11930;53.076;18.250;2023-05-07T04:00:55;18.80;;;11.27;;
23506;SDS011;11930;53.076;18.250;2023-05-07T04:03:25;17.00;;;10.87;;
23506;SDS011;11930;53.076;18.250;2023-05-07T04:05:52;17.37;;;10.53;;
23506;SDS011;11930;53.076;18.250;2023-05-07T04:08:18;17.70;;;10.70;;
23506;SDS011;11930;53.076;18.250;2023-05-07T04:10:48;19.57;;;10.63;;
23506;SDS011;11930;53.076;18.250;2023-05-07T04:13:20;22.87;;;11.03;;
23506;SDS011;11930;53.076;18.250;2023-05-07T04:15:46;20.30;;;10.80;;
23506;SDS011;11930;53.076;18.250;2023-05-07T04:18:16;18.43;;;10.07;;
23506;SDS011;11930;53.076;18.250;2023-05-07T04:20:44;21.87;;;10.03;;
23506;SDS011;11930;53.076;18.250;2023-05-07T04:23:12;19.40;;;10.30;;
23506;SDS011;11930;53.076;18.250;2023-05-07T04:25:40;19.17;;;9.37;;
23506;SDS011;11930;53.076;18.250;2023-05-07T04:28:20;24.83;;;10.03;;
23506;SDS011;11930;53.076;18.250;2023-05-07T04:30:46;23.47;;;10.03;;
23506;SDS011;11930;53.076;18.250;2023-05-07T04:33:14;30.17;;;10.07;;
23506;SDS011;11930;53.076;18.250;2023-05-07T04:35:43;62.30;;;10.93;;
23506;SDS011;11930;53.076;18.250;2023-05-07T04:38:09;26.87;;;9.23;;
23506;SDS011;11930;53.076;18.250;2023-05-07T04:40:36;31.13;;;9.90;;
23506;SDS011;11930;53.076;18.250;2023-05-07T04:43:02;18.97;;;9.83;;
23506;SDS011;11930;53.076;18.250;2023-05-07T04:45:32;22.93;;;10.47;;
23506;SDS011;11930;53.076;18.250;2023-05-07T04:47:58;26.27;;;10.93;;
23506;SDS011;11930;53.076;18.250;2023-05-07T04:50:24;23.27;;;10.20;;
23506;SDS011;11930;53.076;18.250;2023-05-07T04:52:54;18.87;;;9.07;;
23506;SDS011;11930;53.076;18.250;2023-05-07T04:55:23;18.07;;;10.10;;
23506;SDS011;11930;53.076;18.250;2023-05-07T04:57:49;14.47;;;9.70;;
23506;SDS011;11930;53.076;18.250;2023-05-07T05:00:16;13.50;;;8.97;;
23506;SDS011;11930;53.076;18.250;2023-05-07T05:02:45;12.33;;;8.43;;
23506;SDS011;11930;53.076;18.250;2023-05-07T05:05:14;12.10;;;8.07;;
23506;SDS011;11930;53.076;18.250;2023-05-07T05:07:40;11.77;;;8.00;;
23506;SDS011;11930;53.076;18.250;2023-05-07T05:10:07;11.57;;;7.87;;
23506;SDS011;11930;53.076;18.250;2023-05-07T05:12:36;11.37;;;8.43;;
23506;SDS011;11930;53.076;18.250;2023-05-07T05:15:02;11.67;;;7.80;;
23506;SDS011;11930;53.076;18.250;2023-05-07T05:17:29;10.60;;;7.77;;
23506;SDS011;11930;53.076;18.250;2023-05-07T05:19:55;12.60;;;8.73;;
23506;SDS011;11930;53.076;18.250;2023-05-07T05:22:23;11.37;;;8.37;;
23506;SDS011;11930;53.076;18.250;2023-05-07T05:24:49;13.63;;;8.60;;
23506;SDS011;11930;53.076;18.250;2023-05-07T05:27:15;12.40;;;8.70;;
23506;SDS011;11930;53.076;18.250;2023-05-07T05:29:41;12.70;;;8.80;;
23506;SDS011;11930;53.076;18.250;2023-05-07T05:32:07;14.67;;;9.37;;
23506;SDS011;11930;53.076;18.250;2023-05-07T05:34:33;13.17;;;9.17;;
23506;SDS011;11930;53.076;18.250;2023-05-07T05:37:00;12.97;;;9.07;;
23506;SDS011;11930;53.076;18.250;2023-05-07T05:39:27;15.20;;;9.03;;
23506;SDS011;11930;53.076;18.250;2023-05-07T05:41:53;14.77;;;9.03;;
23506;SDS011;11930;53.076;18.250;2023-05-07T05:44:19;12.97;;;8.83;;
23506;SDS011;11930;53.076;18.250;2023-05-07T05:46:45;13.63;;;8.53;;
23506;SDS011;11930;53.076;18.250;2023-05-07T05:49:11;12.83;;;8.43;;
23506;SDS011;11930;53.076;18.250;2023-05-07T05:51:39;14.87;;;9.30;;
23506;SDS011;11930;53.076;18.250;2023-05-07T05:54:05;16.77;;;9.63;;
23506;SDS011;11930;53.076;18.250;2023-05-07T05:56:32;14.07;;;9.10;;
23506;SDS011;11930;53.076;18.250;2023-05-07T05:58:58;15.40;;;9.80;;
23506;SDS011;11930;53.076;18.250;2023-05-07T06:01:25;14.23;;;9.60;;
23506;SDS011;11930;53.076;18.250;2023-05-07T06:03:53;14.07;;;9.13;;
23506;SDS011;11930;53.076;18.250;2023-05-07T06:06:19;13.57;;;8.77;;
23506;SDS011;11930;53.076;18.250;2023-05-07T06:08:45;13.60;;;8.30;;
23506;SDS011;11930;53.076;18.250;2023-05-07T06:11:16;15.20;;;8.80;;
23506;SDS011;11930;53.076;18.250;2023-05-07T06:13:45;12.37;;;7.77;;
23506;SDS011;11930;53.076;18.250;2023-05-07T06:16:10;14.27;;;7.83;;
23506;SDS011;11930;53.076;18.250;2023-05-07T06:18:37;12.00;;;7.30;;
23506;SDS011;11930;53.076;18.250;2023-05-07T06:21:03;13.20;;;7.63;;
23506;SDS011;11930;53.076;18.250;2023-05-07T06:23:32;12.87;;;7.13;;
23506;SDS011;11930;53.076;18.250;2023-05-07T06:25:59;11.63;;;7.50;;
23506;SDS011;11930;53.076;18.250;2023-05-07T06:28:30;13.00;;;7.63;;
23506;SDS011;11930;53.076;18.250;2023-05-07T06:31:11;12.13;;;7.57;;
23506;SDS011;11930;53.076;18.250;2023-05-07T06:33:45;13.80;;;7.33;;
23506;SDS011;11930;53.076;18.250;2023-05-07T06:36:12;10.13;;;6.43;;
23506;SDS011;11930;53.076;18.250;2023-05-07T06:38:39;13.97;;;5.90;;
23506;SDS011;11930;53.076;18.250;2023-05-07T06:41:07;9.43;;;5.20;;
23506;SDS011;11930;53.076;18.250;2023-05-07T06:43:33;11.13;;;5.53;;
23506;SDS011;11930;53.076;18.250;2023-05-07T06:46:24;9.10;;;5.30;;
23506;SDS011;11930;53.076;18.250;2023-05-07T06:48:51;8.90;;;5.57;;
23506;SDS011;11930;53.076;18.250;2023-05-07T06:51:18;9.70;;;5.40;;
23506;SDS011;11930;53.076;18.250;2023-05-07T06:53:44;9.23;;;4.83;;
23506;SDS011;11930;53.076;18.250;2023-05-07T06:56:11;9.00;;;4.90;;
23506;SDS011;11930;53.076;18.250;2023-05-07T06:58:38;9.80;;;5.00;;
23506;SDS011;11930;53.076;18.250;2023-05-07T07:01:05;8.90;;;4.63;;
23506;SDS011;11930;53.076;18.250;2023-05-07T07:03:33;9.03;;;4.83;;
23506;SDS011;11930;53.076;18.250;2023-05-07T07:05:58;10.43;;;4.90;;
23506;SDS011;11930;53.076;18.250;2023-05-07T07:08:25;7.27;;;4.80;;
23506;SDS011;11930;53.076;18.250;2023-05-07T07:10:51;9.13;;;4.67;;
23506;SDS011;11930;53.076;18.250;2023-05-07T07:13:18;8.70;;;5.03;;
23506;SDS011;11930;53.076;18.250;2023-05-07T07:15:44;7.83;;;4.97;;
23506;SDS011;11930;53.076;18.250;2023-05-07T07:18:11;9.60;;;4.90;;
23506;SDS011;11930;53.076;18.250;2023-05-07T07:20:38;8.97;;;4.97;;
23506;SDS011;11930;53.076;18.250;2023-05-07T07:23:06;7.23;;;4.60;;
23506;SDS011;11930;53.076;18.250;2023-05-07T07:25:32;8.33;;;4.80;;
23506;SDS011;11930;53.076;18.250;2023-05-07T07:27:58;8.63;;;5.30;;
23506;SDS011;11930;53.076;18.250;2023-05-07T07:30:25;8.10;;;4.67;;
23506;SDS011;11930;53.076;18.250;2023-05-07T07:32:52;9.47;;;5.10;;
23506;SDS011;11930;53.076;18.250;2023-05-07T07:35:19;9.13;;;5.40;;
23506;SDS011;11930;53.076;18.250;2023-05-07T07:37:46;7.13;;;4.70;;
23506;SDS011;11930;53.076;18.250;2023-05-07T07:40:15;8.27;;;4.20;;
23506;SDS011;11930;53.076;18.250;2023-05-07T07:42:43;7.77;;;4.90;;
23506;SDS011;11930;53.076;18.250;2023-05-07T07:45:10;7.80;;;4.50;;
23506;SDS011;11930;53.076;18.250;2023-05-07T07:47:40;9.33;;;4.80;;
23506;SDS011;11930;53.076;18.250;2023-05-07T07:50:07;7.93;;;3.67;;
23506;SDS011;11930;53.076;18.250;2023-05-07T07:52:33;8.13;;;4.38;;
23506;SDS011;11930;53.076;18.250;2023-05-07T07:55:00;6.70;;;4.67;;
23506;SDS011;11930;53.076;18.250;2023-05-07T07:57:27;9.38;;;4.72;;
23506;SDS011;11930;53.076;18.250;2023-05-07T07:59:54;6.97;;;4.35;;
23506;SDS011;11930;53.076;18.250;2023-05-07T08:02:20;8.30;;;4.50;;
23506;SDS011;11930;53.076;18.250;2023-05-07T08:04:49;7.07;;;4.22;;
23506;SDS011;11930;53.076;18.250;2023-05-07T08:07:16;8.80;;;4.43;;
23506;SDS011;11930;53.076;18.250;2023-05-07T08:09:47;7.78;;;4.30;;
23506;SDS011;11930;53.076;18.250;2023-05-07T08:12:15;8.63;;;4.22;;
23506;SDS011;11930;53.076;18.250;2023-05-07T08:14:41;8.98;;;4.13;;
23506;SDS011;11930;53.076;18.250;2023-05-07T08:17:08;5.80;;;4.20;;
23506;SDS011;11930;53.076;18.250;2023-05-07T08:19:36;6.60;;;4.50;;
23506;SDS011;11930;53.076;18.250;2023-05-07T08:22:04;7.55;;;4.70;;
23506;SDS011;11930;53.076;18.250;2023-05-07T08:24:31;6.28;;;4.15;;
23506;SDS011;11930;53.076;18.250;2023-05-07T08:26:57;7.85;;;3.90;;
23506;SDS011;11930;53.076;18.250;2023-05-07T08:29:24;6.30;;;4.00;;
23506;SDS011;11930;53.076;18.250;2023-05-07T08:31:50;6.30;;;4.30;;
23506;SDS011;11930;53.076;18.250;2023-05-07T08:34:16;7.72;;;3.92;;
23506;SDS011;11930;53.076;18.250;2023-05-07T08:36:44;7.25;;;4.20;;
23506;SDS011;11930;53.076;18.250;2023-05-07T08:39:15;7.38;;;3.85;;
23506;SDS011;11930;53.076;18.250;2023-05-07T08:41:46;8.07;;;4.47;;
23506;SDS011;11930;53.076;18.250;2023-05-07T08:44:17;7.68;;;4.30;;
23506;SDS011;11930;53.076;18.250;2023-05-07T08:46:47;7.32;;;4.30;;
23506;SDS011;11930;53.076;18.250;2023-05-07T08:49:17;6.65;;;4.40;;
23506;SDS011;11930;53.076;18.250;2023-05-07T08:51:44;20.45;;;13.82;;
23506;SDS011;11930;53.076;18.250;2023-05-07T08:54:10;8.10;;;5.10;;
23506;SDS011;11930;53.076;18.250;2023-05-07T08:56:37;7.05;;;4.70;;
23506;SDS011;11930;53.076;18.250;2023-05-07T08:59:05;8.43;;;4.78;;
23506;SDS011;11930;53.076;18.250;2023-05-07T09:01:31;7.07;;;4.38;;
23506;SDS011;11930;53.076;18.250;2023-05-07T09:03:57;8.00;;;4.70;;
23506;SDS011;11930;53.076;18.250;2023-05-07T09:06:26;7.45;;;4.72;;
23506;SDS011;11930;53.076;18.250;2023-05-07T09:08:53;8.30;;;4.35;;
23506;SDS011;11930;53.076;18.250;2023-05-07T09:11:23;6.18;;;3.78;;
23506;SDS011;11930;53.076;18.250;2023-05-07T09:13:54;6.93;;;4.32;;
23506;SDS011;11930;53.076;18.250;2023-05-07T09:16:23;6.57;;;4.20;;
23506;SDS011;11930;53.076;18.250;2023-05-07T09:18:51;6.38;;;4.25;;
23506;SDS011;11930;53.076;18.250;2023-05-07T09:21:19;6.40;;;3.88;;
23506;SDS011;11930;53.076;18.250;2023-05-07T09:23:50;7.60;;;4.35;;
23506;SDS011;11930;53.076;18.250;2023-05-07T09:26:18;7.57;;;4.43;;
23506;SDS011;11930;53.076;18.250;2023-05-07T09:28:46;6.35;;;4.05;;
23506;SDS011;11930;53.076;18.250;2023-05-07T09:31:13;7.13;;;4.05;;
23506;SDS011;11930;53.076;18.250;2023-05-07T09:33:39;6.13;;;3.67;;
23506;SDS011;11930;53.076;18.250;2023-05-07T09:36:08;7.05;;;3.40;;
23506;SDS011;11930;53.076;18.250;2023-05-07T09:38:37;7.93;;;3.95;;
23506;SDS011;11930;53.076;18.250;2023-05-07T09:43:59;7.57;;;3.65;;
23506;SDS011;11930;53.076;18.250;2023-05-07T09:46:32;7.57;;;4.18;;
23506;SDS011;11930;53.076;18.250;2023-05-07T09:49:06;5.30;;;2.95;;
23506;SDS011;11930;53.076;18.250;2023-05-07T09:51:39;6.57;;;3.08;;
23506;SDS011;11930;53.076;18.250;2023-05-07T09:54:11;4.50;;;2.67;;
23506;SDS011;11930;53.076;18.250;2023-05-07T09:56:40;5.57;;;3.20;;
23506;SDS011;11930;53.076;18.250;2023-05-07T09:59:11;5.60;;;2.97;;
23506;SDS011;11930;53.076;18.250;2023-05-07T10:01:40;5.78;;;3.25;;
23506;SDS011;11930;53.076;18.250;2023-05-07T10:04:08;7.28;;;2.97;;
23506;SDS011;11930;53.076;18.250;2023-05-07T10:06:35;7.80;;;3.35;;
23506;SDS011;11930;53.076;18.250;2023-05-07T10:09:02;6.13;;;3.10;;
23506;SDS011;11930;53.076;18.250;2023-05-07T10:11:31;6.35;;;3.47;;
23506;SDS011;11930;53.076;18.250;2023-05-07T10:13:59;4.93;;;2.85;;
23506;SDS011;11930;53.076;18.250;2023-05-07T10:16:32;7.97;;;2.90;;
23506;SDS011;11930;53.076;18.250;2023-05-07T10:19:07;4.97;;;2.53;;
23506;SDS011;11930;53.076;18.250;2023-05-07T10:21:36;5.53;;;2.55;;
23506;SDS011;11930;53.076;18.250;2023-05-07T10:26:42;5.50;;;2.80;;
23506;SDS011;11930;53.076;18.250;2023-05-07T10:29:18;5.68;;;2.75;;
23506;SDS011;11930;53.076;18.250;2023-05-07T10:31:58;4.70;;;2.53;;
23506;SDS011;11930;53.076;18.250;2023-05-07T10:34:39;6.13;;;3.28;;
23506;SDS011;11930;53.076;18.250;2023-05-07T10:37:09;4.40;;;2.60;;
23506;SDS011;11930;53.076;18.250;2023-05-07T10:39:37;4.70;;;2.67;;
23506;SDS011;11930;53.076;18.250;2023-05-07T10:42:13;5.93;;;3.03;;
23506;SDS011;11930;53.076;18.250;2023-05-07T10:44:45;3.83;;;2.60;;
23506;SDS011;11930;53.076;18.250;2023-05-07T10:47:19;4.28;;;2.70;;
23506;SDS011;11930;53.076;18.250;2023-05-07T10:52:22;3.95;;;2.55;;
23506;SDS011;11930;53.076;18.250;2023-05-07T11:00:56;4.85;;;3.33;;
23506;SDS011;11930;53.076;18.250;2023-05-07T11:03:28;5.05;;;2.50;;
23506;SDS011;11930;53.076;18.250;2023-05-07T11:06:15;4.60;;;2.90;;
23506;SDS011;11930;53.076;18.250;2023-05-07T11:08:59;3.90;;;2.80;;
23506;SDS011;11930;53.076;18.250;2023-05-07T11:11:49;4.00;;;2.42;;
23506;SDS011;11930;53.076;18.250;2023-05-07T11:17:12;4.45;;;2.83;;
23506;SDS011;11930;53.076;18.250;2023-05-07T11:19:47;4.32;;;2.90;;
23506;SDS011;11930;53.076;18.250;2023-05-07T11:25:09;6.55;;;3.63;;
23506;SDS011;11930;53.076;18.250;2023-05-07T11:27:36;7.18;;;3.10;;
23506;SDS011;11930;53.076;18.250;2023-05-07T11:30:02;6.55;;;3.05;;
23506;SDS011;11930;53.076;18.250;2023-05-07T11:32:30;5.80;;;2.92;;
23506;SDS011;11930;53.076;18.250;2023-05-07T11:34:58;6.93;;;3.00;;
23506;SDS011;11930;53.076;18.250;2023-05-07T11:37:26;5.50;;;2.30;;
23506;SDS011;11930;53.076;18.250;2023-05-07T11:40:07;4.75;;;2.70;;
23506;SDS011;11930;53.076;18.250;2023-05-07T11:42:36;13.18;;;5.28;;
23506;SDS011;11930;53.076;18.250;2023-05-07T11:45:04;4.20;;;2.65;;
23506;SDS011;11930;53.076;18.250;2023-05-07T11:47:32;7.38;;;3.83;;
23506;SDS011;11930;53.076;18.250;2023-05-07T11:50:07;6.07;;;3.30;;
23506;SDS011;11930;53.076;18.250;2023-05-07T11:52:35;9.20;;;4.85;;
23506;SDS011;11930;53.076;18.250;2023-05-07T11:55:02;5.75;;;3.40;;
23506;SDS011;11930;53.076;18.250;2023-05-07T11:57:32;3.78;;;2.70;;
23506;SDS011;11930;53.076;18.250;2023-05-07T11:59:59;5.60;;;2.85;;
23506;SDS011;11930;53.076;18.250;2023-05-07T12:02:27;4.40;;;2.92;;
23506;SDS011;11930;53.076;18.250;2023-05-07T12:04:53;6.32;;;2.67;;
23506;SDS011;11930;53.076;18.250;2023-05-07T12:07:20;6.45;;;2.72;;
23506;SDS011;11930;53.076;18.250;2023-05-07T12:09:46;3.63;;;2.15;;
23506;SDS011;11930;53.076;18.250;2023-05-07T12:12:13;5.22;;;2.65;;
23506;SDS011;11930;53.076;18.250;2023-05-07T12:14:41;3.53;;;2.25;;
23506;SDS011;11930;53.076;18.250;2023-05-07T12:17:09;3.58;;;2.47;;
23506;SDS011;11930;53.076;18.250;2023-05-07T12:19:36;5.63;;;2.63;;
23506;SDS011;11930;53.076;18.250;2023-05-07T12:22:04;5.85;;;2.85;;
23506;SDS011;11930;53.076;18.250;2023-05-07T12:24:47;4.78;;;2.78;;
23506;SDS011;11930;53.076;18.250;2023-05-07T12:27:15;4.05;;;2.30;;
23506;SDS011;11930;53.076;18.250;2023-05-07T12:29:48;3.22;;;1.92;;
23506;SDS011;11930;53.076;18.250;2023-05-07T12:32:16;4.25;;;2.50;;
23506;SDS011;11930;53.076;18.250;2023-05-07T12:34:44;3.40;;;2.60;;
23506;SDS011;11930;53.076;18.250;2023-05-07T12:37:10;3.75;;;2.53;;
23506;SDS011;11930;53.076;18.250;2023-05-07T12:39:38;5.50;;;2.50;;
23506;SDS011;11930;53.076;18.250;2023-05-07T12:42:09;3.67;;;2.40;;
23506;SDS011;11930;53.076;18.250;2023-05-07T12:44:45;4.75;;;2.40;;
23506;SDS011;11930;53.076;18.250;2023-05-07T12:47:12;5.63;;;2.47;;
23506;SDS011;11930;53.076;18.250;2023-05-07T12:49:38;7.20;;;2.90;;
23506;SDS011;11930;53.076;18.250;2023-05-07T12:52:05;4.85;;;2.47;;
23506;SDS011;11930;53.076;18.250;2023-05-07T12:54:32;5.05;;;2.20;;
23506;SDS011;11930;53.076;18.250;2023-05-07T12:57:07;3.42;;;2.20;;
23506;SDS011;11930;53.076;18.250;2023-05-07T12:59:40;6.00;;;3.03;;
23506;SDS011;11930;53.076;18.250;2023-05-07T13:02:07;4.45;;;2.47;;
23506;SDS011;11930;53.076;18.250;2023-05-07T13:04:35;4.68;;;2.55;;
23506;SDS011;11930;53.076;18.250;2023-05-07T13:07:02;3.78;;;2.40;;
23506;SDS011;11930;53.076;18.250;2023-05-07T13:09:28;3.22;;;2.20;;
23506;SDS011;11930;53.076;18.250;2023-05-07T13:11:55;5.20;;;2.35;;
23506;SDS011;11930;53.076;18.250;2023-05-07T13:14:20;4.55;;;2.53;;
23506;SDS011;11930;53.076;18.250;2023-05-07T13:16:47;4.13;;;2.40;;
23506;SDS011;11930;53.076;18.250;2023-05-07T13:19:13;6.25;;;2.35;;
23506;SDS011;11930;53.076;18.250;2023-05-07T13:21:39;3.47;;;2.00;;
23506;SDS011;11930;53.076;18.250;2023-05-07T13:24:05;4.72;;;2.35;;
23506;SDS011;11930;53.076;18.250;2023-05-07T13:26:31;4.82;;;2.30;;
23506;SDS011;11930;53.076;18.250;2023-05-07T13:28:57;5.72;;;2.70;;
23506;SDS011;11930;53.076;18.250;2023-05-07T13:31:24;3.67;;;2.28;;
23506;SDS011;11930;53.076;18.250;2023-05-07T13:33:50;3.25;;;2.00;;
23506;SDS011;11930;53.076;18.250;2023-05-07T13:36:18;5.65;;;2.20;;
23506;SDS011;11930;53.076;18.250;2023-05-07T13:38:43;4.35;;;2.65;;
23506;SDS011;11930;53.076;18.250;2023-05-07T13:41:10;5.88;;;2.05;;
23506;SDS011;11930;53.076;18.250;2023-05-07T13:43:37;3.40;;;2.22;;
23506;SDS011;11930;53.076;18.250;2023-05-07T13:46:03;6.68;;;4.32;;
23506;SDS011;11930;53.076;18.250;2023-05-07T13:48:29;5.05;;;2.50;;
23506;SDS011;11930;53.076;18.250;2023-05-07T13:50:55;4.07;;;2.40;;
23506;SDS011;11930;53.076;18.250;2023-05-07T13:53:21;8.93;;;2.45;;
23506;SDS011;11930;53.076;18.250;2023-05-07T13:55:47;5.55;;;2.38;;
23506;SDS011;11930;53.076;18.250;2023-05-07T13:58:13;5.85;;;2.50;;
23506;SDS011;11930;53.076;18.250;2023-05-07T14:00:40;3.70;;;2.38;;
23506;SDS011;11930;53.076;18.250;2023-05-07T14:03:06;3.63;;;2.45;;
23506;SDS011;11930;53.076;18.250;2023-05-07T14:05:32;4.97;;;2.60;;
23506;SDS011;11930;53.076;18.250;2023-05-07T14:07:58;5.72;;;2.58;;
23506;SDS011;11930;53.076;18.250;2023-05-07T14:10:24;4.47;;;2.28;;
23506;SDS011;11930;53.076;18.250;2023-05-07T14:12:50;3.80;;;2.30;;
23506;SDS011;11930;53.076;18.250;2023-05-07T14:15:16;3.53;;;2.33;;
23506;SDS011;11930;53.076;18.250;2023-05-07T14:17:42;3.35;;;2.30;;
23506;SDS011;11930;53.076;18.250;2023-05-07T14:20:09;3.47;;;2.20;;
23506;SDS011;11930;53.076;18.250;2023-05-07T14:22:36;4.20;;;2.20;;
23506;SDS011;11930;53.076;18.250;2023-05-07T14:25:02;4.40;;;2.50;;
23506;SDS011;11930;53.076;18.250;2023-05-07T14:27:28;4.38;;;2.30;;
23506;SDS011;11930;53.076;18.250;2023-05-07T14:29:54;4.80;;;2.83;;
23506;SDS011;11930;53.076;18.250;2023-05-07T14:32:20;3.60;;;2.30;;
23506;SDS011;11930;53.076;18.250;2023-05-07T14:34:47;3.73;;;2.17;;
23506;SDS011;11930;53.076;18.250;2023-05-07T14:37:13;4.22;;;2.30;;
23506;SDS011;11930;53.076;18.250;2023-05-07T14:39:39;3.67;;;2.30;;
23506;SDS011;11930;53.076;18.250;2023-05-07T14:42:05;4.38;;;1.92;;
23506;SDS011;11930;53.076;18.250;2023-05-07T14:44:36;5.40;;;2.20;;
23506;SDS011;11930;53.076;18.250;2023-05-07T14:47:02;3.97;;;2.20;;
23506;SDS011;11930;53.076;18.250;2023-05-07T14:49:28;4.38;;;2.17;;